Time;durP1;ratioP1;P1;durP2;ratioP2;P2;SDS_P1;SDS_P2;PMS_P1;PMS_P2;Temp;Humidity;BMP_temperature;BMP_pressure;BME280_temperature;BME280_humidity;BME280_pressure;Samples;Min_cycle;Max_cycle;Signal;HPM_P1;HPM_P2
2022/05/12 00:01:01;;;;;;;20.88;7.55;;;15.20;99.90;;;;;;5071136;28;20052;-55
2022/05/12 00:03:27;;;;;;;16.77;7.68;;;15.20;99.90;;;;;;5070777;28;20016;-56
2022/05/12 00:05:52;;;;;;;14.05;7.43;;;15.20;99.90;;;;;;5070282;28;20211;-56
2022/05/12 00:08:18;;;;;;;14.93;7.50;;;15.20;99.90;;;;;;5071152;28;20107;-56
2022/05/12 00:10:44;;;;;;;19.55;8.15;;;15.10;99.90;;;;;;5070873;28;20077;-56
2022/05/12 00:13:10;;;;;;;17.10;7.53;;;15.10;99.90;;;;;;5072122;28;20423;-56
2022/05/12 00:15:37;;;;;;;16.90;8.23;;;15.00;99.90;;;;;;5071280;28;20079;-55
2022/05/12 00:18:06;;;;;;;15.23;7.63;;;15.00;99.90;;;;;;5070894;28;20393;-56
2022/05/12 00:20:35;;;;;;;13.73;8.00;;;14.90;99.90;;;;;;5070960;28;20033;-56
2022/05/12 00:23:16;;;;;;;15.27;8.93;;;14.90;99.90;;;;;;5070646;28;20031;-55
2022/05/12 00:25:44;;;;;;;18.48;8.60;;;14.80;99.90;;;;;;5070553;28;20146;-56
2022/05/12 00:28:11;;;;;;;17.58;9.30;;;14.90;99.90;;;;;;5070190;28;20462;-55
2022/05/12 00:30:37;;;;;;;22.88;9.52;;;14.90;99.90;;;;;;5069963;28;20036;-56
2022/05/12 00:33:03;;;;;;;20.25;8.40;;;14.80;99.90;;;;;;5070437;28;20029;-56
2022/05/12 00:35:28;;;;;;;19.35;8.60;;;14.90;99.90;;;;;;5070071;28;20071;-56
2022/05/12 00:37:54;;;;;;;18.40;8.05;;;14.80;99.90;;;;;;5070093;28;20020;-56
2022/05/12 00:40:19;;;;;;;16.70;7.28;;;14.70;99.90;;;;;;5070060;28;20036;-56
2022/05/12 00:43:04;;;;;;;16.73;7.53;;;14.70;99.90;;;;;;5071391;28;20198;-56
2022/05/12 00:45:32;;;;;;;16.45;7.03;;;14.60;99.90;;;;;;5070545;28;20486;-56
2022/05/12 00:47:58;;;;;;;18.27;6.63;;;14.50;99.90;;;;;;5070507;28;20025;-56
2022/05/12 00:50:32;;;;;;;18.92;6.32;;;14.50;99.90;;;;;;5070068;28;20067;-56
2022/05/12 00:52:59;;;;;;;17.35;6.45;;;14.40;99.90;;;;;;5070287;28;20060;-57
2022/05/12 00:55:31;;;;;;;20.15;6.78;;;14.40;99.90;;;;;;5070039;28;20056;-56
2022/05/12 00:58:00;;;;;;;16.73;6.63;;;14.30;99.90;;;;;;5070346;28;20035;-56
2022/05/12 01:00:26;;;;;;;17.27;6.35;;;14.30;99.90;;;;;;5069883;28;20032;-56
2022/05/12 01:02:56;;;;;;;19.17;6.57;;;14.30;99.90;;;;;;5070115;28;20044;-57
2022/05/12 01:05:24;;;;;;;19.27;5.93;;;14.30;99.90;;;;;;5070207;28;20074;-56
2022/05/12 01:07:51;;;;;;;18.80;6.72;;;14.30;99.90;;;;;;5070439;28;20020;-55
2022/05/12 01:10:18;;;;;;;18.75;6.65;;;14.10;99.90;;;;;;5069773;28;20021;-55
2022/05/12 01:12:48;;;;;;;19.33;5.85;;;14.00;99.90;;;;;;5069537;28;20040;-55
2022/05/12 01:15:17;;;;;;;20.48;6.30;;;13.90;99.90;;;;;;5070226;28;20107;-56
2022/05/12 01:17:46;;;;;;;18.70;6.05;;;13.80;99.90;;;;;;5072712;28;20167;-55
2022/05/12 01:20:13;;;;;;;19.50;6.25;;;13.80;99.90;;;;;;5073527;28;20028;-55
2022/05/12 01:22:50;;;;;;;20.50;6.78;;;13.80;99.90;;;;;;5073641;28;20032;-56
2022/05/12 01:25:20;;;;;;;15.43;5.68;;;13.70;99.90;;;;;;5074404;28;20031;-56
2022/05/12 01:27:46;;;;;;;17.02;6.70;;;13.70;99.90;;;;;;5073706;28;20162;-55
2022/05/12 01:30:15;;;;;;;20.05;6.32;;;13.60;99.90;;;;;;5073778;28;20492;-55
2022/05/12 01:32:44;;;;;;;21.13;6.93;;;13.60;99.90;;;;;;5074192;28;20024;-56
2022/05/12 01:35:11;;;;;;;20.65;6.35;;;13.60;99.90;;;;;;5073386;28;20036;-55
2022/05/12 01:37:42;;;;;;;24.80;6.85;;;13.60;99.90;;;;;;5073671;28;20102;-57
2022/05/12 01:40:10;;;;;;;19.23;6.63;;;13.50;99.90;;;;;;5073996;28;20343;-55
2022/05/12 01:42:36;;;;;;;17.15;6.05;;;13.40;99.90;;;;;;5074542;28;20028;-56
2022/05/12 01:45:03;;;;;;;18.58;6.53;;;13.30;99.90;;;;;;5074582;28;20028;-55
2022/05/12 01:47:29;;;;;;;18.48;6.95;;;13.30;99.90;;;;;;5074052;28;20025;-55
2022/05/12 01:49:55;;;;;;;19.15;6.30;;;13.30;99.90;;;;;;5073705;28;20028;-55
2022/05/12 01:52:21;;;;;;;20.73;7.07;;;13.30;99.90;;;;;;5073691;28;20486;-56
2022/05/12 01:54:47;;;;;;;19.48;6.68;;;13.30;99.90;;;;;;5073704;28;20482;-56
2022/05/12 01:57:12;;;;;;;18.60;6.40;;;13.20;99.90;;;;;;5072710;28;20025;-55
2022/05/12 01:59:38;;;;;;;22.90;7.07;;;13.20;99.90;;;;;;5073027;28;20052;-55
2022/05/12 02:02:04;;;;;;;20.05;6.57;;;13.20;99.90;;;;;;5074339;28;20366;-55
2022/05/12 02:04:30;;;;;;;18.58;6.28;;;13.10;99.90;;;;;;5074010;28;20020;-55
2022/05/12 02:06:55;;;;;;;17.67;5.68;;;13.10;99.90;;;;;;5074111;28;20381;-55
2022/05/12 02:09:21;;;;;;;21.98;6.50;;;13.00;99.90;;;;;;5074034;28;20032;-55
2022/05/12 02:11:46;;;;;;;21.75;6.18;;;12.90;99.90;;;;;;5073465;28;20489;-55
2022/05/12 02:14:14;;;;;;;18.95;5.75;;;12.80;99.90;;;;;;5073290;28;20032;-55
2022/05/12 02:16:39;;;;;;;20.05;6.50;;;12.80;99.90;;;;;;5073400;28;20367;-55
2022/05/12 02:19:08;;;;;;;18.73;6.13;;;12.80;99.90;;;;;;5073239;28;20028;-56
2022/05/12 02:21:34;;;;;;;20.08;6.07;;;12.70;99.90;;;;;;5072122;28;20027;-55
2022/05/12 02:24:00;;;;;;;17.38;5.85;;;12.60;99.90;;;;;;5073252;28;20503;-55
2022/05/12 02:26:27;;;;;;;15.98;5.95;;;12.60;99.90;;;;;;5073154;28;20020;-55
2022/05/12 02:28:53;;;;;;;14.05;5.90;;;12.50;99.90;;;;;;5073043;28;20032;-55
2022/05/12 02:31:18;;;;;;;21.38;6.22;;;12.50;99.90;;;;;;5072927;28;20020;-55
2022/05/12 02:33:44;;;;;;;17.63;6.25;;;12.60;99.90;;;;;;5073084;28;20474;-55
2022/05/12 02:36:09;;;;;;;21.98;6.45;;;12.50;99.90;;;;;;5072027;28;20075;-56
2022/05/12 02:38:35;;;;;;;14.02;6.00;;;12.60;99.90;;;;;;5071691;28;20074;-55
2022/05/12 02:41:01;;;;;;;19.08;6.18;;;12.50;99.90;;;;;;5072096;28;20032;-56
2022/05/12 02:43:29;;;;;;;20.27;6.00;;;12.50;99.90;;;;;;5071773;28;20107;-55
2022/05/12 02:46:05;;;;;;;16.77;6.70;;;12.50;99.90;;;;;;5072637;28;20079;-55
2022/05/12 02:48:34;;;;;;;17.90;6.20;;;12.60;99.90;;;;;;5073013;28;20020;-55
2022/05/12 02:51:00;;;;;;;19.90;6.55;;;12.40;99.90;;;;;;5073847;28;20028;-55
2022/05/12 02:53:27;;;;;;;19.13;6.75;;;12.30;99.90;;;;;;5072343;28;20068;-56
2022/05/12 02:55:53;;;;;;;22.75;7.20;;;12.30;99.90;;;;;;5072352;28;20422;-55
2022/05/12 02:58:18;;;;;;;22.08;7.28;;;12.20;99.90;;;;;;5073107;28;20016;-55
2022/05/12 03:00:45;;;;;;;18.77;6.28;;;12.10;99.90;;;;;;5072352;28;20478;-56
2022/05/12 03:03:10;;;;;;;17.92;6.68;;;12.10;99.90;;;;;;5072358;28;20028;-55
2022/05/12 03:05:37;;;;;;;21.63;6.80;;;12.10;99.90;;;;;;5072794;28;20449;-55
2022/05/12 03:08:03;;;;;;;18.73;7.07;;;12.00;99.90;;;;;;5072510;28;20032;-55
2022/05/12 03:10:31;;;;;;;23.33;7.18;;;12.00;99.90;;;;;;5072430;28;20024;-55
2022/05/12 03:12:57;;;;;;;23.27;7.45;;;12.10;99.90;;;;;;5072355;28;20028;-55
2022/05/12 03:15:23;;;;;;;16.58;6.57;;;12.10;99.90;;;;;;5072290;28;20501;-55
2022/05/12 03:17:50;;;;;;;18.60;7.15;;;12.10;99.90;;;;;;5072522;28;20025;-56
2022/05/12 03:20:19;;;;;;;19.95;7.25;;;12.10;99.90;;;;;;5071815;28;20042;-55
2022/05/12 03:22:45;;;;;;;19.50;7.53;;;12.00;99.90;;;;;;5072650;28;20052;-55
2022/05/12 03:25:12;;;;;;;17.05;7.55;;;12.00;99.90;;;;;;5071788;28;20393;-55
2022/05/12 03:27:39;;;;;;;24.00;7.55;;;11.90;99.90;;;;;;5073154;28;20028;-55
2022/05/12 03:30:07;;;;;;;23.05;8.02;;;12.00;99.90;;;;;;5072270;28;20074;-59
2022/05/12 03:32:33;;;;;;;25.60;7.90;;;12.00;99.90;;;;;;5072122;28;20039;-55
2022/05/12 03:34:58;;;;;;;21.73;7.78;;;12.00;99.90;;;;;;5071726;28;20489;-57
2022/05/12 03:37:27;;;;;;;19.15;7.63;;;12.00;99.90;;;;;;5071892;28;20041;-55
2022/05/12 03:39:53;;;;;;;20.48;7.95;;;11.90;99.90;;;;;;5070932;28;20035;-55
2022/05/12 03:42:19;;;;;;;26.08;8.98;;;11.90;99.90;;;;;;5071861;28;20021;-54
2022/05/12 03:44:53;;;;;;;18.48;7.70;;;11.80;99.90;;;;;;5071458;28;20031;-55
2022/05/12 03:47:33;;;;;;;28.02;9.13;;;11.90;99.90;;;;;;5071647;28;20036;-55
2022/05/12 03:50:26;;;;;;;17.63;8.88;;;11.90;99.90;;;;;;5071934;28;20063;-54
2022/05/12 03:52:52;;;;;;;;;;;11.90;99.90;;;;;;5070626;28;20046;-54
2022/05/12 03:55:21;;;;;;;20.40;8.35;;;11.80;99.90;;;;;;5071748;28;19987;-59
2022/05/12 03:57:48;;;;;;;18.35;7.88;;;11.80;99.90;;;;;;5071435;28;20135;-55
2022/05/12 04:00:21;;;;;;;21.33;9.30;;;11.80;99.90;;;;;;5071240;28;20082;-54
2022/05/12 04:02:48;;;;;;;19.02;8.88;;;11.70;99.90;;;;;;5072136;28;20082;-55
2022/05/12 04:05:14;;;;;;;23.55;8.70;;;11.70;99.90;;;;;;5071030;28;20025;-55
2022/05/12 04:07:42;;;;;;;27.17;9.65;;;11.70;99.90;;;;;;5071184;28;20541;-55
2022/05/12 04:10:09;;;;;;;22.65;9.45;;;11.70;99.90;;;;;;5071681;28;20031;-55
2022/05/12 04:12:34;;;;;;;22.40;9.25;;;11.70;99.90;;;;;;5071895;28;20481;-56
2022/05/12 04:15:00;;;;;;;21.40;9.68;;;11.60;99.90;;;;;;5071358;28;20034;-55
2022/05/12 04:17:26;;;;;;;27.13;10.20;;;11.70;99.90;;;;;;5071639;28;20039;-55
2022/05/12 04:19:52;;;;;;;23.33;9.68;;;11.70;99.90;;;;;;5071366;28;20318;-55
2022/05/12 04:22:19;;;;;;;22.85;9.45;;;11.70;99.90;;;;;;5071245;28;20106;-55
2022/05/12 04:24:45;;;;;;;25.20;10.18;;;11.70;99.90;;;;;;5071069;28;20496;-54
2022/05/12 04:27:11;;;;;;;20.88;10.07;;;11.70;99.90;;;;;;5071361;28;20021;-54
2022/05/12 04:29:42;;;;;;;25.75;9.98;;;11.60;99.90;;;;;;5071636;28;20497;-54
2022/05/12 04:32:08;;;;;;;29.13;10.20;;;11.60;99.90;;;;;;5071469;28;20020;-55
2022/05/12 04:37:24;;;;;;;24.33;9.50;;;11.80;99.90;;;;;;5071151;28;20043;-54
2022/05/12 04:39:49;;;;;;;26.05;9.38;;;11.70;99.90;;;;;;5071126;28;20052;-54
2022/05/12 04:42:15;;;;;;;26.55;9.98;;;11.70;99.90;;;;;;5071368;28;20062;-55
2022/05/12 04:44:40;;;;;;;31.33;9.90;;;11.70;99.90;;;;;;5070564;28;20024;-53
2022/05/12 04:47:06;;;;;;;29.90;10.07;;;11.70;99.90;;;;;;5069670;28;20395;-53
2022/05/12 04:49:32;;;;;;;26.02;9.85;;;11.70;99.90;;;;;;5070117;28;20052;-53
2022/05/12 04:52:01;;;;;;;30.90;10.52;;;11.70;99.90;;;;;;5073210;28;20024;-53
2022/05/12 04:54:27;;;;;;;31.85;10.00;;;11.70;99.90;;;;;;5073780;28;20108;-53
2022/05/12 04:56:53;;;;;;;25.08;9.10;;;11.60;99.90;;;;;;5074122;28;20060;-53
2022/05/12 04:59:18;;;;;;;23.20;8.93;;;11.70;99.90;;;;;;5073915;28;20394;-53
2022/05/12 05:01:44;;;;;;;26.13;10.15;;;11.70;99.90;;;;;;5074215;28;20107;-53
2022/05/12 05:04:10;;;;;;;23.02;9.30;;;11.70;99.90;;;;;;5074030;28;20058;-53
2022/05/12 05:06:36;;;;;;;22.25;9.88;;;11.60;99.90;;;;;;5074082;28;20070;-53
2022/05/12 05:09:02;;;;;;;20.88;10.18;;;11.70;99.90;;;;;;5073600;28;20016;-53
2022/05/12 05:11:28;;;;;;;26.50;9.95;;;11.70;99.90;;;;;;5073971;28;20498;-54
2022/05/12 05:13:54;;;;;;;27.25;10.00;;;11.80;99.90;;;;;;5073386;28;20027;-54
2022/05/12 05:16:21;;;;;;;27.10;10.05;;;11.90;99.90;;;;;;5074132;28;20561;-54
2022/05/12 05:18:46;;;;;;;31.40;10.80;;;12.00;99.90;;;;;;5072452;28;20016;-54
2022/05/12 05:21:12;;;;;;;25.35;10.05;;;12.00;99.90;;;;;;5073634;28;20036;-55
2022/05/12 05:23:38;;;;;;;20.38;9.77;;;12.00;99.90;;;;;;5069857;28;20035;-55
2022/05/12 05:26:04;;;;;;;23.20;10.02;;;12.10;99.90;;;;;;5063521;28;20020;-54
2022/05/12 05:28:30;;;;;;;23.20;9.30;;;12.10;99.90;;;;;;5062659;28;20043;-54
2022/05/12 05:30:55;;;;;;;28.10;10.10;;;12.20;99.90;;;;;;5071852;28;20064;-55
2022/05/12 05:33:21;;;;;;;23.50;11.07;;;12.20;99.90;;;;;;5086090;28;20020;-54
2022/05/12 05:35:48;;;;;;;22.52;10.63;;;12.30;99.90;;;;;;5069651;28;20040;-54
2022/05/12 05:38:13;;;;;;;22.90;10.35;;;12.20;99.90;;;;;;5080559;28;20050;-53
2022/05/12 05:40:39;;;;;;;25.55;9.60;;;12.20;99.90;;;;;;5086512;28;20524;-53
2022/05/12 05:43:05;;;;;;;22.48;10.20;;;12.30;99.90;;;;;;5075135;28;20427;-53
2022/05/12 05:45:31;;;;;;;24.42;9.80;;;12.30;99.90;;;;;;5074442;28;20028;-53
2022/05/12 05:48:00;;;;;;;19.42;9.60;;;12.30;99.90;;;;;;5075371;28;20046;-54
2022/05/12 05:53:23;;;;;;;25.63;9.80;;;12.40;99.90;;;;;;5084504;28;20032;-55
2022/05/12 05:53:24;;;;;;;19.60;9.95;;;12.40;99.90;;;;;;5073085;28;20396;-55
2022/05/12 05:55:50;;;;;;;25.13;9.60;;;12.50;99.90;;;;;;5078375;28;20035;-55
2022/05/12 05:58:16;;;;;;;24.17;10.05;;;12.60;99.90;;;;;;5083078;28;20484;-55
2022/05/12 06:00:43;;;;;;;20.80;9.63;;;12.50;99.90;;;;;;5069209;28;20029;-55
2022/05/12 06:03:10;;;;;;;25.73;10.73;;;12.60;99.90;;;;;;5062975;28;20059;-55
2022/05/12 06:05:36;;;;;;;25.48;10.43;;;12.70;99.90;;;;;;5062618;28;20401;-55
2022/05/12 06:08:03;;;;;;;19.80;9.30;;;12.80;99.90;;;;;;5070571;28;20048;-55
2022/05/12 06:10:29;;;;;;;22.50;9.20;;;12.80;99.90;;;;;;5069080;28;20920;-55
2022/05/12 06:12:56;;;;;;;30.45;10.00;;;12.90;99.90;;;;;;5066338;28;20115;-55
2022/05/12 06:15:22;;;;;;;21.27;9.43;;;13.10;99.90;;;;;;5062016;28;20029;-55
2022/05/12 06:17:48;;;;;;;23.05;9.77;;;13.10;99.90;;;;;;5070818;28;20052;-55
2022/05/12 06:20:14;;;;;;;23.00;9.73;;;13.10;99.90;;;;;;5060293;28;20044;-55
2022/05/12 06:22:40;;;;;;;24.20;9.23;;;13.20;99.90;;;;;;5062139;28;20028;-55
2022/05/12 06:25:09;;;;;;;27.15;10.40;;;13.30;99.90;;;;;;5062531;28;20020;-55
2022/05/12 06:27:35;;;;;;;25.30;9.57;;;13.40;99.90;;;;;;5061252;28;20047;-55
2022/05/12 06:30:02;;;;;;;22.83;8.50;;;13.40;99.90;;;;;;5062903;28;20028;-56
2022/05/12 06:32:28;;;;;;;24.15;9.18;;;13.50;99.90;;;;;;5054780;28;20056;-55
2022/05/12 06:34:54;;;;;;;20.92;8.85;;;13.70;99.90;;;;;;5051243;28;20185;-56
2022/05/12 06:37:20;;;;;;;22.33;9.20;;;13.60;99.90;;;;;;5055279;28;20012;-55
2022/05/12 06:39:46;;;;;;;21.65;9.32;;;13.60;99.90;;;;;;5063095;28;20071;-55
2022/05/12 06:42:12;;;;;;;21.23;9.50;;;13.70;99.90;;;;;;5055641;28;20032;-55
2022/05/12 06:44:39;;;;;;;14.63;7.47;;;13.70;99.90;;;;;;5053369;28;21680;-55
2022/05/12 06:47:10;;;;;;;20.30;9.23;;;13.90;99.90;;;;;;5059004;28;20025;-55
2022/05/12 06:49:36;;;;;;;19.50;9.02;;;14.00;99.90;;;;;;5062728;28;20098;-56
2022/05/12 06:52:05;;;;;;;17.42;8.10;;;14.10;99.90;;;;;;5056388;28;20032;-56
2022/05/12 06:54:34;;;;;;;21.67;8.25;;;14.30;99.90;;;;;;5053598;28;20033;-55
2022/05/12 06:57:01;;;;;;;16.60;7.70;;;14.40;99.90;;;;;;5055129;28;20067;-56
2022/05/12 06:59:27;;;;;;;16.33;6.78;;;14.50;99.90;;;;;;5058382;28;20131;-56
2022/05/12 07:01:53;;;;;;;21.25;6.97;;;15.50;99.90;;;;;;5057235;28;20028;-56
2022/05/12 07:04:19;;;;;;;12.85;5.97;;;16.70;99.90;;;;;;5063503;28;20021;-56
2022/05/12 07:06:45;;;;;;;11.48;5.55;;;17.60;99.90;;;;;;5049407;28;20132;-56
2022/05/12 07:09:11;;;;;;;14.95;5.85;;;18.00;99.90;;;;;;5058490;28;20147;-56
2022/05/12 07:11:37;;;;;;;13.82;6.00;;;18.80;99.90;;;;;;5054310;28;20037;-57
2022/05/12 07:14:02;;;;;;;15.32;5.47;;;19.40;99.90;;;;;;5060615;28;20078;-56
2022/05/12 07:16:28;;;;;;;14.68;5.28;;;19.50;99.90;;;;;;5058611;28;20033;-57
2022/05/12 07:18:54;;;;;;;16.20;5.07;;;20.10;99.90;;;;;;5059158;28;20021;-57
2022/05/12 07:26:52;;;;;;;13.25;5.15;;;20.30;99.90;;;;;;5055543;28;20075;-57
2022/05/12 07:29:24;;;;;;;11.07;5.00;;;20.40;99.90;;;;;;5057257;28;20051;-56
2022/05/12 07:31:50;;;;;;;10.18;4.85;;;20.30;99.90;;;;;;5060801;28;20066;-56
2022/05/12 07:34:17;;;;;;;11.27;4.53;;;21.10;99.90;;;;;;5059996;28;20056;-57
2022/05/12 07:36:53;;;;;;;12.65;4.32;;;21.10;99.90;;;;;;5052783;28;20486;-57
2022/05/12 07:39:28;;;;;;;9.75;4.43;;;21.00;99.70;;;;;;5069033;28;20032;-59
2022/05/12 07:41:58;;;;;;;9.88;4.25;;;21.40;99.90;;;;;;5054538;28;20093;-57
2022/05/12 07:44:31;;;;;;;12.23;4.32;;;21.30;99.50;;;;;;5046949;28;20135;-57
2022/05/12 07:47:02;;;;;;;10.02;4.15;;;21.60;99.50;;;;;;5040096;28;20090;-57
2022/05/12 07:49:31;;;;;;;10.32;3.75;;;21.30;99.10;;;;;;5041647;28;20021;-58
2022/05/12 07:51:57;;;;;;;10.50;4.07;;;21.00;99.50;;;;;;5043761;28;20377;-58
2022/05/12 07:54:22;;;;;;;9.43;4.18;;;20.60;99.90;;;;;;5042234;28;20087;-57
2022/05/12 07:56:48;;;;;;;9.45;3.67;;;20.50;99.90;;;;;;5036344;28;20124;-57
2022/05/12 07:59:14;;;;;;;9.93;3.97;;;21.20;98.80;;;;;;5038789;28;20082;-57
2022/05/12 08:01:39;;;;;;;10.55;3.78;;;21.80;97.60;;;;;;5032102;28;20025;-57
2022/05/12 08:04:05;;;;;;;8.90;4.05;;;22.50;97.30;;;;;;5038030;28;20118;-57
2022/05/12 08:06:32;;;;;;;14.57;4.10;;;22.00;96.50;;;;;;5038791;28;20033;-58
2022/05/12 08:08:57;;;;;;;12.00;3.58;;;21.40;98.20;;;;;;5036182;28;20067;-58
2022/05/12 08:11:24;;;;;;;9.02;3.63;;;21.50;96.20;;;;;;5037749;28;20707;-58
2022/05/12 08:13:50;;;;;;;10.60;3.35;;;21.80;96.80;;;;;;5031336;28;20037;-57
2022/05/12 08:16:18;;;;;;;9.30;3.42;;;21.70;95.70;;;;;;5030327;28;20526;-57
2022/05/12 08:18:46;;;;;;;9.30;2.90;;;22.20;95.50;;;;;;5033330;28;20025;-58
2022/05/12 08:21:13;;;;;;;6.40;2.90;;;22.60;94.20;;;;;;5033251;28;20025;-58
2022/05/12 08:23:39;;;;;;;11.70;3.25;;;22.60;92.60;;;;;;5027917;28;20037;-58
2022/05/12 08:26:05;;;;;;;11.55;3.40;;;23.20;92.00;;;;;;5032974;28;20060;-59
2022/05/12 08:28:31;;;;;;;9.40;3.15;;;23.70;91.40;;;;;;5029987;28;20482;-58
2022/05/12 08:30:56;;;;;;;9.63;3.60;;;22.60;92.70;;;;;;5035868;28;20050;-58
2022/05/12 08:33:23;;;;;;;11.93;3.50;;;21.60;94.30;;;;;;5019893;28;20383;-58
2022/05/12 08:35:50;;;;;;;9.15;3.80;;;21.60;94.80;;;;;;5025237;28;20533;-58
2022/05/12 08:38:18;;;;;;;9.68;3.90;;;21.50;94.40;;;;;;5027767;28;20482;-57
2022/05/12 08:41:04;;;;;;;8.02;3.40;;;21.30;94.80;;;;;;5036430;28;20514;-58
2022/05/12 08:43:56;;;;;;;8.35;3.47;;;21.30;94.30;;;;;;5033295;28;20052;-57
2022/05/12 08:46:43;;;;;;;7.90;3.22;;;21.50;94.00;;;;;;5026760;28;20029;-57
2022/05/12 08:49:21;;;;;;;5.57;2.75;;;20.80;94.80;;;;;;5022623;28;20037;-57
2022/05/12 08:51:51;;;;;;;5.72;3.22;;;20.90;95.60;;;;;;5020263;28;20037;-58
2022/05/12 08:54:22;;;;;;;8.15;2.90;;;21.00;94.50;;;;;;5017067;28;20033;-57
2022/05/12 08:56:53;;;;;;;6.65;3.28;;;20.70;95.00;;;;;;5010653;28;20087;-56
2022/05/12 08:59:19;;;;;;;13.20;4.07;;;20.00;96.70;;;;;;5023146;28;20136;-56
2022/05/12 09:02:01;;;;;;;13.18;4.03;;;20.80;96.40;;;;;;5015055;28;20521;-56
2022/05/12 09:04:34;;;;;;;7.70;3.57;;;20.40;96.70;;;;;;5003380;28;20053;-57
2022/05/12 09:07:27;;;;;;;8.63;3.25;;;20.80;96.10;;;;;;5012268;28;21506;-57
2022/05/12 09:10:01;;;;;;;9.70;3.60;;;21.00;95.00;;;;;;5019169;28;20467;-58
2022/05/12 09:12:32;;;;;;;10.93;4.35;;;20.60;94.60;;;;;;5026221;28;20491;-57
2022/05/12 09:15:19;;;;;;;10.90;4.03;;;20.20;96.40;;;;;;5017601;28;20029;-56
2022/05/12 09:17:53;;;;;;;11.55;4.00;;;20.00;96.70;;;;;;5015930;28;20028;-57
2022/05/12 09:20:19;;;;;;;14.07;4.05;;;20.80;96.30;;;;;;5029800;28;20049;-57
2022/05/12 09:22:44;;;;;;;10.43;4.53;;;20.80;95.30;;;;;;5019756;28;20398;-57
2022/05/12 09:25:26;;;;;;;11.85;4.90;;;20.40;96.20;;;;;;5016624;28;20111;-57
2022/05/12 09:27:53;;;;;;;13.45;4.93;;;19.90;97.10;;;;;;5011902;28;20079;-57
2022/05/12 09:30:30;;;;;;;12.98;4.25;;;19.40;97.60;;;;;;5017848;28;20034;-56
2022/05/12 09:33:00;;;;;;;12.65;4.82;;;19.10;97.00;;;;;;5013197;28;20104;-56
2022/05/12 09:35:28;;;;;;;13.25;4.53;;;18.60;99.70;;;;;;5009788;28;20049;-56
2022/05/12 09:37:54;;;;;;;9.32;4.13;;;18.50;99.80;;;;;;5016319;28;20160;-56
2022/05/12 09:40:39;;;;;;;12.40;4.15;;;18.40;98.90;;;;;;5009766;28;20364;-56
2022/05/12 09:43:31;;;;;;;12.15;3.97;;;19.10;98.30;;;;;;5010731;28;20033;-56
2022/05/12 09:46:18;;;;;;;6.67;3.17;;;19.30;97.50;;;;;;5017887;28;20119;-56
2022/05/12 09:48:48;;;;;;;13.30;4.10;;;19.10;97.20;;;;;;5015492;28;20291;-56
2022/05/12 09:51:21;;;;;;;13.15;4.22;;;18.90;98.20;;;;;;5016179;28;20704;-56
2022/05/12 09:53:49;;;;;;;13.05;3.95;;;19.70;98.20;;;;;;5017095;28;20167;-56
2022/05/12 09:56:35;;;;;;;13.40;4.60;;;19.90;96.60;;;;;;5016886;28;20051;-57
2022/05/12 09:59:12;;;;;;;8.75;4.10;;;19.60;96.80;;;;;;5010840;28;20029;-56
2022/05/12 10:01:51;;;;;;;9.90;3.92;;;19.20;97.60;;;;;;5020520;28;20033;-56
2022/05/12 10:10:03;;;;;;;10.88;3.53;;;20.80;95.50;;;;;;5016789;28;20030;-56
2022/05/12 10:12:38;;;;;;;10.18;3.90;;;21.00;94.30;;;;;;5017616;28;20478;-58
2022/05/12 10:15:18;;;;;;;11.02;3.92;;;21.60;94.00;;;;;;5017845;28;20216;-57
2022/05/12 10:18:11;;;;;;;8.90;3.58;;;21.50;93.00;;;;;;5018111;28;20082;-56
2022/05/12 10:20:38;;;;;;;;;;;20.60;93.90;;;;;;5020477;28;20689;-57
2022/05/12 10:23:25;;;;;;;10.70;3.72;;;19.60;96.60;;;;;;5011952;28;19917;-57
2022/05/12 10:26:06;;;;;;;10.63;3.38;;;19.80;95.70;;;;;;5009263;28;22256;-57
2022/05/12 10:28:31;;;;;;;9.38;3.47;;;20.70;93.20;;;;;;5010388;28;20033;-57
2022/05/12 10:31:28;;;;;;;8.07;3.50;;;21.60;92.90;;;;;;5012799;28;20034;-57
2022/05/12 10:34:05;;;;;;;9.30;3.33;;;21.30;91.80;;;;;;5010003;28;20061;-58
2022/05/12 10:36:40;;;;;;;8.18;3.45;;;20.30;93.20;;;;;;5018590;28;20831;-58
2022/05/12 10:39:41;;;;;;;10.48;3.40;;;20.50;93.30;;;;;;5016344;28;20107;-57
2022/05/12 10:42:28;;;;;;;11.82;3.80;;;20.40;93.80;;;;;;5030634;28;20029;-56
2022/05/12 10:45:18;;;;;;;9.48;3.50;;;20.00;93.80;;;;;;5016685;28;20041;-57
2022/05/12 10:47:55;;;;;;;10.32;3.60;;;19.40;94.60;;;;;;5018138;28;20046;-57
2022/05/12 10:50:29;;;;;;;11.55;3.28;;;19.40;94.20;;;;;;5018708;28;20116;-58
2022/05/12 10:53:10;;;;;;;11.10;2.78;;;20.20;93.80;;;;;;5022080;28;20036;-58
2022/05/12 10:56:18;;;;;;;7.70;3.00;;;21.30;91.50;;;;;;5025507;28;20040;-58
2022/05/12 10:59:00;;;;;;;4.57;2.40;;;21.60;90.10;;;;;;5018588;28;20072;-57
2022/05/12 11:01:33;;;;;;;5.30;2.30;;;20.70;91.70;;;;;;5020271;28;20033;-57
2022/05/12 11:04:19;;;;;;;12.75;2.80;;;20.80;92.90;;;;;;5010278;28;20502;-58
2022/05/12 11:06:54;;;;;;;9.20;2.50;;;21.30;90.50;;;;;;5017599;28;20036;-57
2022/05/12 11:09:30;;;;;;;8.50;2.38;;;22.10;89.50;;;;;;5016727;28;20021;-58
2022/05/12 11:12:04;;;;;;;6.35;2.25;;;23.10;87.80;;;;;;5017748;28;20030;-57
2022/05/12 11:14:40;;;;;;;7.80;2.15;;;22.20;85.70;;;;;;5020956;28;20541;-57
2022/05/12 11:17:09;;;;;;;5.57;2.20;;;22.00;89.50;;;;;;5019306;28;20357;-57
2022/05/12 11:19:37;;;;;;;7.15;2.33;;;22.10;89.80;;;;;;5018341;28;20033;-57
2022/05/12 11:22:09;;;;;;;6.57;2.13;;;22.00;88.50;;;;;;5019780;28;20100;-57
2022/05/12 11:25:17;;;;;;;6.45;1.70;;;21.90;87.60;;;;;;5018102;28;20022;-57
2022/05/12 11:27:49;;;;;;;7.95;2.05;;;22.70;85.60;;;;;;5021195;28;20490;-57
2022/05/12 11:30:31;;;;;;;4.13;1.90;;;22.70;85.80;;;;;;5019153;28;20083;-57
2022/05/12 11:33:16;;;;;;;;;;;22.40;85.30;;;;;;5020531;28;20534;-56
2022/05/12 11:35:52;;;;;;;6.28;1.95;;;21.70;87.10;;;;;;5028801;28;19920;-57
2022/05/12 11:38:40;;;;;;;10.52;2.30;;;22.00;83.60;;;;;;5023002;28;20072;-58
2022/05/12 11:41:14;;;;;;;6.78;1.75;;;22.70;84.00;;;;;;5021508;28;20470;-57
2022/05/12 11:46:33;;;;;;;6.78;1.63;;;23.80;79.80;;;;;;5022742;28;20037;-58
2022/05/12 11:49:08;;;;;;;7.73;1.93;;;25.00;78.40;;;;;;5020438;28;20032;-57
2022/05/12 11:51:48;;;;;;;10.57;2.03;;;25.20;75.50;;;;;;5018447;28;20276;-57
2022/05/12 11:54:39;;;;;;;7.13;2.05;;;24.10;78.40;;;;;;5022682;28;20028;-57
2022/05/12 11:57:20;;;;;;;7.87;1.70;;;23.20;79.60;;;;;;5022936;28;20047;-57
2022/05/12 11:59:48;;;;;;;18.88;2.53;;;23.30;78.50;;;;;;5015598;28;20943;-58
2022/05/12 12:02:29;;;;;;;8.73;1.85;;;22.80;79.10;;;;;;5019988;28;20021;-58
2022/05/12 12:05:31;;;;;;;6.25;1.83;;;22.90;78.90;;;;;;5019781;28;20037;-56
2022/05/12 12:07:56;;;;;;;6.40;1.40;;;22.80;80.80;;;;;;5016997;28;20056;-57
2022/05/12 12:10:25;;;;;;;6.30;1.95;;;23.20;79.10;;;;;;5018809;28;20056;-56
2022/05/12 12:13:27;;;;;;;5.00;1.85;;;22.60;79.00;;;;;;5020313;28;20045;-56
2022/05/12 12:15:56;;;;;;;7.90;1.90;;;22.50;80.20;;;;;;5017939;28;20398;-56
2022/05/12 12:18:22;;;;;;;7.32;2.00;;;22.50;79.50;;;;;;5016825;28;20033;-56
2022/05/12 12:20:49;;;;;;;10.52;1.70;;;22.40;80.10;;;;;;5021341;28;20392;-56
2022/05/12 12:23:30;;;;;;;6.50;2.00;;;22.00;81.40;;;;;;5020449;28;20116;-56
2022/05/12 12:26:01;;;;;;;3.90;1.60;;;21.30;84.30;;;;;;5019083;28;20061;-56
2022/05/12 12:28:45;;;;;;;7.90;2.15;;;21.60;84.20;;;;;;5022140;28;20029;-56
2022/05/12 12:31:37;;;;;;;8.68;1.77;;;21.50;85.20;;;;;;5022784;28;20045;-56
2022/05/12 12:34:21;;;;;;;5.93;1.90;;;21.30;83.40;;;;;;5019227;28;20108;-57
2022/05/12 12:36:50;;;;;;;8.75;1.88;;;20.90;84.40;;;;;;5028888;28;20092;-57
2022/05/12 12:39:43;;;;;;;6.05;1.83;;;21.20;83.70;;;;;;5026536;28;20029;-56
2022/05/12 12:42:15;;;;;;;9.15;2.08;;;21.90;82.90;;;;;;5026965;28;20021;-57
2022/05/12 12:44:43;;;;;;;8.52;2.50;;;21.50;83.10;;;;;;5028659;28;20074;-57
2022/05/12 12:47:31;;;;;;;11.10;2.30;;;21.80;83.60;;;;;;5021461;28;20025;-57
2022/05/12 12:50:16;;;;;;;4.95;1.95;;;22.30;81.60;;;;;;5024195;28;20038;-57
2022/05/12 12:52:44;;;;;;;9.60;2.13;;;22.50;81.80;;;;;;5031597;28;20034;-57
2022/05/12 12:58:04;;;;;;;7.25;1.98;;;23.60;79.80;;;;;;5028267;28;20044;-57
2022/05/12 13:00:36;;;;;;;5.45;1.77;;;24.20;77.30;;;;;;5021466;28;20520;-57
2022/05/12 13:03:28;;;;;;;;;;;23.30;77.90;;;;;;5022849;28;20021;-57
2022/05/12 13:06:09;;;;;;;12.93;1.88;;;22.70;78.70;;;;;;5016914;28;19909;-57
2022/05/12 13:08:35;;;;;;;6.30;1.87;;;23.10;79.40;;;;;;5022843;28;20037;-57
2022/05/12 13:11:04;;;;;;;7.18;2.13;;;23.20;78.10;;;;;;5025323;28;20283;-57
2022/05/12 13:13:29;;;;;;;7.43;2.05;;;22.50;80.10;;;;;;5022736;28;20037;-58
2022/05/12 13:16:03;;;;;;;8.20;1.63;;;22.00;82.00;;;;;;5023565;28;20062;-57
2022/05/12 13:18:32;;;;;;;12.23;2.15;;;21.90;83.90;;;;;;5021961;28;20471;-57